sensor_id;sensor_type;location;lat;lon;timestamp;temperature;humidity
43995;DHT22;51687;52.160;5.298;2023-02-28T00:02:20;10.10;46.90
43995;DHT22;51687;52.160;5.298;2023-02-28T00:04:47;10.10;46.90
43995;DHT22;51687;52.160;5.298;2023-02-28T00:07:19;10.10;47.00
43995;DHT22;51687;52.160;5.298;2023-02-28T00:09:46;10.10;47.10
43995;DHT22;51687;52.160;5.298;2023-02-28T00:12:12;10.10;47.30
43995;DHT22;51687;52.160;5.298;2023-02-28T00:14:39;10.10;47.30
43995;DHT22;51687;52.160;5.298;2023-02-28T00:17:06;10.10;47.30
43995;DHT22;51687;52.160;5.298;2023-02-28T00:19:33;10.10;47.50
43995;DHT22;51687;52.160;5.298;2023-02-28T00:21:59;10.10;47.60
43995;DHT22;51687;52.160;5.298;2023-02-28T00:24:26;10.10;47.70
43995;DHT22;51687;52.160;5.298;2023-02-28T00:26:53;10.00;48.30
43995;DHT22;51687;52.160;5.298;2023-02-28T00:29:19;10.00;47.80
43995;DHT22;51687;52.160;5.298;2023-02-28T00:31:46;10.00;48.00
43995;DHT22;51687;52.160;5.298;2023-02-28T00:34:13;10.00;48.10
43995;DHT22;51687;52.160;5.298;2023-02-28T00:36:39;10.00;48.20
43995;DHT22;51687;52.160;5.298;2023-02-28T00:39:10;10.00;48.20
43995;DHT22;51687;52.160;5.298;2023-02-28T00:41:37;10.00;48.20
43995;DHT22;51687;52.160;5.298;2023-02-28T00:44:03;10.00;48.40
43995;DHT22;51687;52.160;5.298;2023-02-28T00:46:30;10.00;48.50
43995;DHT22;51687;52.160;5.298;2023-02-28T00:48:57;10.00;49.00
43995;DHT22;51687;52.160;5.298;2023-02-28T00:51:23;10.00;48.50
43995;DHT22;51687;52.160;5.298;2023-02-28T00:53:50;10.00;48.60
43995;DHT22;51687;52.160;5.298;2023-02-28T00:56:18;9.90;48.60
43995;DHT22;51687;52.160;5.298;2023-02-28T00:58:44;9.90;48.70
43995;DHT22;51687;52.160;5.298;2023-02-28T01:01:11;9.90;48.80
43995;DHT22;51687;52.160;5.298;2023-02-28T01:03:38;9.90;48.90
43995;DHT22;51687;52.160;5.298;2023-02-28T01:06:05;9.90;48.90
43995;DHT22;51687;52.160;5.298;2023-02-28T01:08:32;9.90;49.10
43995;DHT22;51687;52.160;5.298;2023-02-28T01:11:07;9.90;49.10
43995;DHT22;51687;52.160;5.298;2023-02-28T01:13:35;9.90;49.20
43995;DHT22;51687;52.160;5.298;2023-02-28T01:16:01;9.90;49.10
43995;DHT22;51687;52.160;5.298;2023-02-28T01:18:28;9.90;49.20
43995;DHT22;51687;52.160;5.298;2023-02-28T01:20:55;9.90;49.20
43995;DHT22;51687;52.160;5.298;2023-02-28T01:23:22;9.80;49.20
43995;DHT22;51687;52.160;5.298;2023-02-28T01:25:50;9.90;49.50
43995;DHT22;51687;52.160;5.298;2023-02-28T01:28:17;9.80;49.50
43995;DHT22;51687;52.160;5.298;2023-02-28T01:30:48;9.80;49.50
43995;DHT22;51687;52.160;5.298;2023-02-28T01:33:15;9.80;49.50
43995;DHT22;51687;52.160;5.298;2023-02-28T01:35:42;9.80;49.50
43995;DHT22;51687;52.160;5.298;2023-02-28T01:38:08;9.80;49.60
43995;DHT22;51687;52.160;5.298;2023-02-28T01:40:48;9.80;49.70
43995;DHT22;51687;52.160;5.298;2023-02-28T01:43:39;9.80;49.80
43995;DHT22;51687;52.160;5.298;2023-02-28T01:46:18;9.80;49.80
43995;DHT22;51687;52.160;5.298;2023-02-28T01:54:09;9.80;50.30
43995;DHT22;51687;52.160;5.298;2023-02-28T01:56:44;9.80;50.30
43995;DHT22;51687;52.160;5.298;2023-02-28T02:02:13;9.80;50.40
43995;DHT22;51687;52.160;5.298;2023-02-28T02:04:50;9.80;50.40
43995;DHT22;51687;52.160;5.298;2023-02-28T02:07:19;9.80;50.60
43995;DHT22;51687;52.160;5.298;2023-02-28T02:09:46;9.70;50.60
43995;DHT22;51687;52.160;5.298;2023-02-28T02:17:25;9.70;50.90
43995;DHT22;51687;52.160;5.298;2023-02-28T02:20:16;9.80;51.10
43995;DHT22;51687;52.160;5.298;2023-02-28T02:25:33;9.80;51.30
43995;DHT22;51687;52.160;5.298;2023-02-28T02:28:25;9.70;51.50
43995;DHT22;51687;52.160;5.298;2023-02-28T02:39:16;9.70;52.00
43995;DHT22;51687;52.160;5.298;2023-02-28T02:41:52;9.70;52.20
43995;DHT22;51687;52.160;5.298;2023-02-28T02:44:40;9.70;52.10
43995;DHT22;51687;52.160;5.298;2023-02-28T02:47:15;9.70;52.40
43995;DHT22;51687;52.160;5.298;2023-02-28T02:49:49;9.70;52.40
43995;DHT22;51687;52.160;5.298;2023-02-28T02:52:22;9.70;53.10
43995;DHT22;51687;52.160;5.298;2023-02-28T02:54:53;9.70;52.50
43995;DHT22;51687;52.160;5.298;2023-02-28T02:57:43;9.70;52.60
43995;DHT22;51687;52.160;5.298;2023-02-28T03:00:12;9.70;52.70
43995;DHT22;51687;52.160;5.298;2023-02-28T03:02:42;9.80;52.70
43995;DHT22;51687;52.160;5.298;2023-02-28T03:05:25;9.80;52.70
43995;DHT22;51687;52.160;5.298;2023-02-28T03:07:52;9.70;52.90
43995;DHT22;51687;52.160;5.298;2023-02-28T03:13:05;9.80;53.10
43995;DHT22;51687;52.160;5.298;2023-02-28T03:16:05;9.80;53.00
43995;DHT22;51687;52.160;5.298;2023-02-28T03:21:43;9.80;53.10
43995;DHT22;51687;52.160;5.298;2023-02-28T03:24:19;9.80;53.10
43995;DHT22;51687;52.160;5.298;2023-02-28T03:26:54;9.80;53.00
43995;DHT22;51687;52.160;5.298;2023-02-28T03:29:31;9.80;53.10
43995;DHT22;51687;52.160;5.298;2023-02-28T03:32:07;9.80;53.10
43995;DHT22;51687;52.160;5.298;2023-02-28T03:34:50;9.80;53.20
43995;DHT22;51687;52.160;5.298;2023-02-28T03:37:20;9.80;53.10
43995;DHT22;51687;52.160;5.298;2023-02-28T03:40:02;9.80;52.70
43995;DHT22;51687;52.160;5.298;2023-02-28T03:42:35;9.80;53.00
43995;DHT22;51687;52.160;5.298;2023-02-28T03:45:11;9.80;53.10
43995;DHT22;51687;52.160;5.298;2023-02-28T03:47:45;9.80;53.20
43995;DHT22;51687;52.160;5.298;2023-02-28T03:50:16;9.80;53.30
43995;DHT22;51687;52.160;5.298;2023-02-28T03:52:48;9.80;53.40
43995;DHT22;51687;52.160;5.298;2023-02-28T03:55:17;9.80;53.50
43995;DHT22;51687;52.160;5.298;2023-02-28T03:57:58;9.80;53.50
43995;DHT22;51687;52.160;5.298;2023-02-28T04:00:31;9.80;53.70
43995;DHT22;51687;52.160;5.298;2023-02-28T04:02:59;9.80;53.80
43995;DHT22;51687;52.160;5.298;2023-02-28T04:05:26;9.80;53.70
43995;DHT22;51687;52.160;5.298;2023-02-28T04:07:54;9.70;53.80
43995;DHT22;51687;52.160;5.298;2023-02-28T04:10:20;9.70;53.90
43995;DHT22;51687;52.160;5.298;2023-02-28T04:12:47;9.70;54.00
43995;DHT22;51687;52.160;5.298;2023-02-28T04:15:14;9.70;54.20
43995;DHT22;51687;52.160;5.298;2023-02-28T04:17:41;9.70;54.30
43995;DHT22;51687;52.160;5.298;2023-02-28T04:20:09;9.70;54.30
43995;DHT22;51687;52.160;5.298;2023-02-28T04:22:36;9.70;54.10
43995;DHT22;51687;52.160;5.298;2023-02-28T04:25:04;9.70;54.10
43995;DHT22;51687;52.160;5.298;2023-02-28T04:27:34;9.70;53.80
43995;DHT22;51687;52.160;5.298;2023-02-28T04:30:01;9.70;53.60
43995;DHT22;51687;52.160;5.298;2023-02-28T04:32:28;9.70;53.50
43995;DHT22;51687;52.160;5.298;2023-02-28T04:34:55;9.70;53.30
43995;DHT22;51687;52.160;5.298;2023-02-28T04:37:22;9.70;53.20
43995;DHT22;51687;52.160;5.298;2023-02-28T04:39:54;9.70;52.30
43995;DHT22;51687;52.160;5.298;2023-02-28T04:42:21;9.70;50.90
43995;DHT22;51687;52.160;5.298;2023-02-28T04:44:48;9.60;49.60
43995;DHT22;51687;52.160;5.298;2023-02-28T04:47:14;9.60;48.80
43995;DHT22;51687;52.160;5.298;2023-02-28T04:49:41;9.60;48.60
43995;DHT22;51687;52.160;5.298;2023-02-28T04:52:08;9.60;48.00
43995;DHT22;51687;52.160;5.298;2023-02-28T04:54:36;9.60;47.90
43995;DHT22;51687;52.160;5.298;2023-02-28T04:57:05;9.60;47.30
43995;DHT22;51687;52.160;5.298;2023-02-28T04:59:32;9.60;47.70
43995;DHT22;51687;52.160;5.298;2023-02-28T05:01:59;9.60;47.40
43995;DHT22;51687;52.160;5.298;2023-02-28T05:04:26;9.50;47.60
43995;DHT22;51687;52.160;5.298;2023-02-28T05:06:52;9.50;47.10
43995;DHT22;51687;52.160;5.298;2023-02-28T05:09:19;9.60;47.50
43995;DHT22;51687;52.160;5.298;2023-02-28T05:11:46;9.50;47.40
43995;DHT22;51687;52.160;5.298;2023-02-28T05:14:13;9.50;47.50
43995;DHT22;51687;52.160;5.298;2023-02-28T05:16:41;9.50;47.70
43995;DHT22;51687;52.160;5.298;2023-02-28T05:19:07;9.50;47.90
43995;DHT22;51687;52.160;5.298;2023-02-28T05:21:41;9.50;47.30
43995;DHT22;51687;52.160;5.298;2023-02-28T05:24:14;9.50;46.90
43995;DHT22;51687;52.160;5.298;2023-02-28T05:26:42;9.50;46.90
43995;DHT22;51687;52.160;5.298;2023-02-28T05:29:10;9.50;46.70
43995;DHT22;51687;52.160;5.298;2023-02-28T05:31:37;9.50;46.60
43995;DHT22;51687;52.160;5.298;2023-02-28T05:34:04;9.40;46.80
43995;DHT22;51687;52.160;5.298;2023-02-28T05:36:31;9.40;46.90
43995;DHT22;51687;52.160;5.298;2023-02-28T05:38:58;8.80;47.10
43995;DHT22;51687;52.160;5.298;2023-02-28T05:41:24;9.50;51.40
43995;DHT22;51687;52.160;5.298;2023-02-28T05:43:53;9.40;47.80
43995;DHT22;51687;52.160;5.298;2023-02-28T05:46:19;9.40;48.40
43995;DHT22;51687;52.160;5.298;2023-02-28T06:01:35;9.40;48.60
43995;DHT22;51687;52.160;5.298;2023-02-28T06:04:05;9.30;50.50
43995;DHT22;51687;52.160;5.298;2023-02-28T06:06:32;9.30;50.50
43995;DHT22;51687;52.160;5.298;2023-02-28T06:09:04;9.30;50.80
43995;DHT22;51687;52.160;5.298;2023-02-28T06:11:31;9.30;51.00
43995;DHT22;51687;52.160;5.298;2023-02-28T06:14:00;9.30;51.10
43995;DHT22;51687;52.160;5.298;2023-02-28T06:16:29;9.30;51.30
43995;DHT22;51687;52.160;5.298;2023-02-28T06:19:02;9.30;51.30
43995;DHT22;51687;52.160;5.298;2023-02-28T06:21:31;9.30;51.40
43995;DHT22;51687;52.160;5.298;2023-02-28T06:23:58;9.30;51.50
43995;DHT22;51687;52.160;5.298;2023-02-28T06:26:25;9.30;51.30
43995;DHT22;51687;52.160;5.298;2023-02-28T06:28:52;9.30;51.40
43995;DHT22;51687;52.160;5.298;2023-02-28T06:31:19;9.30;51.70
43995;DHT22;51687;52.160;5.298;2023-02-28T06:33:46;9.30;52.00
43995;DHT22;51687;52.160;5.298;2023-02-28T06:36:15;9.20;52.30
43995;DHT22;51687;52.160;5.298;2023-02-28T06:38:42;9.20;52.50
43995;DHT22;51687;52.160;5.298;2023-02-28T06:41:10;9.20;52.50
43995;DHT22;51687;52.160;5.298;2023-02-28T06:43:40;9.20;52.70
43995;DHT22;51687;52.160;5.298;2023-02-28T06:46:10;9.20;52.80
43995;DHT22;51687;52.160;5.298;2023-02-28T06:48:37;9.20;52.80
43995;DHT22;51687;52.160;5.298;2023-02-28T06:51:07;9.20;53.00
43995;DHT22;51687;52.160;5.298;2023-02-28T06:53:34;9.20;53.00
43995;DHT22;51687;52.160;5.298;2023-02-28T06:56:05;9.20;53.00
43995;DHT22;51687;52.160;5.298;2023-02-28T06:58:33;9.30;53.00
43995;DHT22;51687;52.160;5.298;2023-02-28T07:01:01;9.30;53.30
43995;DHT22;51687;52.160;5.298;2023-02-28T07:03:28;9.50;53.40
43995;DHT22;51687;52.160;5.298;2023-02-28T07:05:55;9.70;53.10
43995;DHT22;51687;52.160;5.298;2023-02-28T07:08:26;10.00;52.70
43995;DHT22;51687;52.160;5.298;2023-02-28T07:50:15;10.20;52.10
43995;DHT22;51687;52.160;5.298;2023-02-28T07:52:42;10.50;52.00
43995;DHT22;51687;52.160;5.298;2023-02-28T07:55:10;10.50;51.80
43995;DHT22;51687;52.160;5.298;2023-02-28T07:57:37;10.60;51.70
43995;DHT22;51687;52.160;5.298;2023-02-28T08:00:05;10.70;51.60
43995;DHT22;51687;52.160;5.298;2023-02-28T08:02:32;10.80;51.40
43995;DHT22;51687;52.160;5.298;2023-02-28T08:04:59;10.90;51.40
43995;DHT22;51687;52.160;5.298;2023-02-28T08:07:26;11.00;51.00
43995;DHT22;51687;52.160;5.298;2023-02-28T08:12:20;11.10;51.00
43995;DHT22;51687;52.160;5.298;2023-02-28T08:22:12;11.40;50.30
43995;DHT22;51687;52.160;5.298;2023-02-28T08:32:05;11.80;49.40
43995;DHT22;51687;52.160;5.298;2023-02-28T08:34:40;12.10;48.60
43995;DHT22;51687;52.160;5.298;2023-02-28T08:37:07;12.10;48.50
43995;DHT22;51687;52.160;5.298;2023-02-28T08:39:35;12.20;48.30
43995;DHT22;51687;52.160;5.298;2023-02-28T08:42:04;12.20;48.20
43995;DHT22;51687;52.160;5.298;2023-02-28T08:44:34;12.30;48.30
43995;DHT22;51687;52.160;5.298;2023-02-28T09:19:04;12.30;48.30
43995;DHT22;51687;52.160;5.298;2023-02-28T09:21:31;12.10;45.40
43995;DHT22;51687;52.160;5.298;2023-02-28T09:23:58;12.10;46.20
43995;DHT22;51687;52.160;5.298;2023-02-28T09:26:26;12.00;45.90
43995;DHT22;51687;52.160;5.298;2023-02-28T09:29:04;12.00;45.90
43995;DHT22;51687;52.160;5.298;2023-02-28T10:05:14;11.80;38.30
43995;DHT22;51687;52.160;5.298;2023-02-28T10:10:39;11.60;36.90
43995;DHT22;51687;52.160;5.298;2023-02-28T10:13:35;11.50;36.60
43995;DHT22;51687;52.160;5.298;2023-02-28T10:16:13;11.40;37.20
43995;DHT22;51687;52.160;5.298;2023-02-28T10:18:46;11.40;36.00
43995;DHT22;51687;52.160;5.298;2023-02-28T10:21:24;11.30;36.20
43995;DHT22;51687;52.160;5.298;2023-02-28T10:23:58;11.20;34.50
43995;DHT22;51687;52.160;5.298;2023-02-28T10:26:28;11.20;35.00
43995;DHT22;51687;52.160;5.298;2023-02-28T10:28:57;11.10;35.60
43995;DHT22;51687;52.160;5.298;2023-02-28T10:31:23;11.10;35.50
43995;DHT22;51687;52.160;5.298;2023-02-28T10:33:52;11.10;35.80
43995;DHT22;51687;52.160;5.298;2023-02-28T10:36:20;11.10;36.00
43995;DHT22;51687;52.160;5.298;2023-02-28T10:38:47;11.10;35.70
43995;DHT22;51687;52.160;5.298;2023-02-28T10:41:26;11.10;36.50
43995;DHT22;51687;52.160;5.298;2023-02-28T10:44:22;11.10;35.80
43995;DHT22;51687;52.160;5.298;2023-02-28T10:46:50;11.10;35.90
43995;DHT22;51687;52.160;5.298;2023-02-28T10:49:21;11.10;34.70
43995;DHT22;51687;52.160;5.298;2023-02-28T10:51:55;11.10;35.50
43995;DHT22;51687;52.160;5.298;2023-02-28T10:54:31;11.10;35.50
43995;DHT22;51687;52.160;5.298;2023-02-28T10:57:18;11.10;35.60
43995;DHT22;51687;52.160;5.298;2023-02-28T10:59:46;11.10;35.30
43995;DHT22;51687;52.160;5.298;2023-02-28T11:02:35;11.20;35.60
43995;DHT22;51687;52.160;5.298;2023-02-28T11:05:33;11.20;34.00
43995;DHT22;51687;52.160;5.298;2023-02-28T11:08:05;11.20;34.20
43995;DHT22;51687;52.160;5.298;2023-02-28T11:10:33;11.20;35.50
43995;DHT22;51687;52.160;5.298;2023-02-28T11:13:02;11.30;35.70
43995;DHT22;51687;52.160;5.298;2023-02-28T11:15:32;11.30;34.80
43995;DHT22;51687;52.160;5.298;2023-02-28T11:18:21;11.30;34.30
43995;DHT22;51687;52.160;5.298;2023-02-28T11:20:51;11.40;34.40
43995;DHT22;51687;52.160;5.298;2023-02-28T11:23:19;11.40;34.60
43995;DHT22;51687;52.160;5.298;2023-02-28T11:25:55;11.40;33.30
43995;DHT22;51687;52.160;5.298;2023-02-28T11:28:33;11.40;32.80
43995;DHT22;51687;52.160;5.298;2023-02-28T11:33:49;11.50;32.60
43995;DHT22;51687;52.160;5.298;2023-02-28T11:36:30;11.50;32.50
43995;DHT22;51687;52.160;5.298;2023-02-28T11:39:09;11.50;32.20
43995;DHT22;51687;52.160;5.298;2023-02-28T11:47:45;11.70;33.30
43995;DHT22;51687;52.160;5.298;2023-02-28T11:53:01;11.80;33.10
43995;DHT22;51687;52.160;5.298;2023-02-28T11:55:41;11.80;32.60
43995;DHT22;51687;52.160;5.298;2023-02-28T12:06:34;11.90;33.10
43995;DHT22;51687;52.160;5.298;2023-02-28T12:25:36;12.50;31.80
43995;DHT22;51687;52.160;5.298;2023-02-28T12:28:09;12.60;37.20
43995;DHT22;51687;52.160;5.298;2023-02-28T12:30:44;12.70;31.60
43995;DHT22;51687;52.160;5.298;2023-02-28T12:33:16;12.80;30.70
43995;DHT22;51687;52.160;5.298;2023-02-28T12:35:51;12.90;30.00
43995;DHT22;51687;52.160;5.298;2023-02-28T12:43:55;13.00;30.20
43995;DHT22;51687;52.160;5.298;2023-02-28T12:46:36;13.40;33.70
43995;DHT22;51687;52.160;5.298;2023-02-28T12:49:08;13.60;34.40
43995;DHT22;51687;52.160;5.298;2023-02-28T13:42:32;14.90;32.00
43995;DHT22;51687;52.160;5.298;2023-02-28T13:47:30;16.80;30.30
43995;DHT22;51687;52.160;5.298;2023-02-28T15:27:35;17.00;34.00
43995;DHT22;51687;52.160;5.298;2023-02-28T15:30:07;18.60;33.70
43995;DHT22;51687;52.160;5.298;2023-02-28T15:32:37;18.50;27.40
43995;DHT22;51687;52.160;5.298;2023-02-28T15:35:26;18.60;28.30
43995;DHT22;51687;52.160;5.298;2023-02-28T15:58:59;19.00;26.20
43995;DHT22;51687;52.160;5.298;2023-02-28T16:01:34;19.00;25.80
43995;DHT22;51687;52.160;5.298;2023-02-28T16:04:12;19.10;26.10
43995;DHT22;51687;52.160;5.298;2023-02-28T16:09:20;19.10;27.00
43995;DHT22;51687;52.160;5.298;2023-02-28T16:11:49;19.20;27.90
43995;DHT22;51687;52.160;5.298;2023-02-28T16:14:24;19.20;26.10
43995;DHT22;51687;52.160;5.298;2023-02-28T16:16:54;19.30;25.70
43995;DHT22;51687;52.160;5.298;2023-02-28T16:19:22;19.30;26.90
43995;DHT22;51687;52.160;5.298;2023-02-28T16:21:49;19.20;26.30
43995;DHT22;51687;52.160;5.298;2023-02-28T16:24:16;19.20;27.20
43995;DHT22;51687;52.160;5.298;2023-02-28T16:26:46;19.30;26.70
43995;DHT22;51687;52.160;5.298;2023-02-28T16:29:28;19.20;26.50
43995;DHT22;51687;52.160;5.298;2023-02-28T16:31:56;19.20;26.00
43995;DHT22;51687;52.160;5.298;2023-02-28T16:34:24;19.20;26.30
43995;DHT22;51687;52.160;5.298;2023-02-28T16:36:51;19.30;26.60
43995;DHT22;51687;52.160;5.298;2023-02-28T16:39:18;19.20;27.50
43995;DHT22;51687;52.160;5.298;2023-02-28T16:41:48;19.30;27.10
43995;DHT22;51687;52.160;5.298;2023-02-28T16:44:38;19.20;26.50
43995;DHT22;51687;52.160;5.298;2023-02-28T16:47:05;19.20;27.60
43995;DHT22;51687;52.160;5.298;2023-02-28T16:49:32;19.20;26.20
43995;DHT22;51687;52.160;5.298;2023-02-28T16:51:58;19.20;25.90
43995;DHT22;51687;52.160;5.298;2023-02-28T16:54:25;19.20;25.30
43995;DHT22;51687;52.160;5.298;2023-02-28T16:56:52;19.20;25.80
43995;DHT22;51687;52.160;5.298;2023-02-28T16:59:23;19.20;25.50
43995;DHT22;51687;52.160;5.298;2023-02-28T17:01:51;19.10;25.60
43995;DHT22;51687;52.160;5.298;2023-02-28T17:04:19;19.10;25.60
43995;DHT22;51687;52.160;5.298;2023-02-28T17:06:46;19.10;25.70
43995;DHT22;51687;52.160;5.298;2023-02-28T17:09:19;19.10;26.10
43995;DHT22;51687;52.160;5.298;2023-02-28T17:11:50;19.00;26.00
43995;DHT22;51687;52.160;5.298;2023-02-28T17:14:16;19.00;26.00
43995;DHT22;51687;52.160;5.298;2023-02-28T17:16:43;19.00;27.00
43995;DHT22;51687;52.160;5.298;2023-02-28T17:19:13;18.90;26.30
43995;DHT22;51687;52.160;5.298;2023-02-28T17:21:41;18.90;26.60
43995;DHT22;51687;52.160;5.298;2023-02-28T17:24:11;18.80;26.80
43995;DHT22;51687;52.160;5.298;2023-02-28T17:26:44;18.80;26.80
43995;DHT22;51687;52.160;5.298;2023-02-28T17:29:21;18.70;26.20
43995;DHT22;51687;52.160;5.298;2023-02-28T17:31:48;18.70;25.80
43995;DHT22;51687;52.160;5.298;2023-02-28T17:34:16;18.50;25.80
43995;DHT22;51687;52.160;5.298;2023-02-28T17:36:45;18.30;25.80
43995;DHT22;51687;52.160;5.298;2023-02-28T17:39:14;18.10;26.30
43995;DHT22;51687;52.160;5.298;2023-02-28T17:41:41;17.90;26.30
43995;DHT22;51687;52.160;5.298;2023-02-28T17:44:08;17.70;26.70
43995;DHT22;51687;52.160;5.298;2023-02-28T17:46:36;17.50;26.70
43995;DHT22;51687;52.160;5.298;2023-02-28T17:49:03;17.40;27.70
43995;DHT22;51687;52.160;5.298;2023-02-28T17:51:30;17.40;28.10
43995;DHT22;51687;52.160;5.298;2023-02-28T17:53:57;17.40;28.10
43995;DHT22;51687;52.160;5.298;2023-02-28T17:56:25;17.40;27.90
43995;DHT22;51687;52.160;5.298;2023-02-28T17:58:53;17.50;28.10
43995;DHT22;51687;52.160;5.298;2023-02-28T18:01:22;17.50;28.30
43995;DHT22;51687;52.160;5.298;2023-02-28T18:03:50;17.50;28.20
43995;DHT22;51687;52.160;5.298;2023-02-28T18:06:25;17.60;28.00
43995;DHT22;51687;52.160;5.298;2023-02-28T18:08:54;17.60;27.80
43995;DHT22;51687;52.160;5.298;2023-02-28T18:11:22;17.60;28.00
43995;DHT22;51687;52.160;5.298;2023-02-28T18:13:51;17.60;28.00
43995;DHT22;51687;52.160;5.298;2023-02-28T18:16:20;17.60;28.00
43995;DHT22;51687;52.160;5.298;2023-02-28T18:18:48;17.60;28.10
43995;DHT22;51687;52.160;5.298;2023-02-28T18:21:15;17.60;28.30
43995;DHT22;51687;52.160;5.298;2023-02-28T18:23:43;17.60;28.20
43995;DHT22;51687;52.160;5.298;2023-02-28T18:26:19;17.60;28.20
43995;DHT22;51687;52.160;5.298;2023-02-28T18:28:46;17.60;28.00
43995;DHT22;51687;52.160;5.298;2023-02-28T18:31:17;17.60;28.10
43995;DHT22;51687;52.160;5.298;2023-02-28T18:33:48;17.70;28.30
43995;DHT22;51687;52.160;5.298;2023-02-28T18:36:16;17.70;28.00
43995;DHT22;51687;52.160;5.298;2023-02-28T18:38:43;17.60;28.30
43995;DHT22;51687;52.160;5.298;2023-02-28T18:41:11;17.60;28.50
43995;DHT22;51687;52.160;5.298;2023-02-28T18:43:39;17.60;28.60
43995;DHT22;51687;52.160;5.298;2023-02-28T18:46:08;17.60;28.50
43995;DHT22;51687;52.160;5.298;2023-02-28T18:48:36;17.60;28.50
43995;DHT22;51687;52.160;5.298;2023-02-28T18:53:38;17.60;28.90
43995;DHT22;51687;52.160;5.298;2023-02-28T18:56:06;17.60;29.00
43995;DHT22;51687;52.160;5.298;2023-02-28T18:58:33;17.50;32.30
43995;DHT22;51687;52.160;5.298;2023-02-28T19:01:02;17.50;29.20
43995;DHT22;51687;52.160;5.298;2023-02-28T19:03:29;17.50;29.00
43995;DHT22;51687;52.160;5.298;2023-02-28T19:05:57;17.40;29.00
43995;DHT22;51687;52.160;5.298;2023-02-28T19:08:25;17.30;29.00
43995;DHT22;51687;52.160;5.298;2023-02-28T19:10:52;17.30;29.20
43995;DHT22;51687;52.160;5.298;2023-02-28T19:13:19;17.20;29.10
43995;DHT22;51687;52.160;5.298;2023-02-28T19:15:46;17.10;29.20
43995;DHT22;51687;52.160;5.298;2023-02-28T19:18:13;17.00;29.30
43995;DHT22;51687;52.160;5.298;2023-02-28T19:20:40;17.00;29.30
43995;DHT22;51687;52.160;5.298;2023-02-28T19:23:07;16.90;29.00
43995;DHT22;51687;52.160;5.298;2023-02-28T19:25:40;16.90;29.70
43995;DHT22;51687;52.160;5.298;2023-02-28T19:28:07;16.80;29.40
43995;DHT22;51687;52.160;5.298;2023-02-28T19:30:34;16.70;29.50
43995;DHT22;51687;52.160;5.298;2023-02-28T19:33:01;16.60;29.30
43995;DHT22;51687;52.160;5.298;2023-02-28T19:35:28;16.60;29.40
43995;DHT22;51687;52.160;5.298;2023-02-28T19:37:55;16.50;29.50
43995;DHT22;51687;52.160;5.298;2023-02-28T19:40:24;16.40;29.50
43995;DHT22;51687;52.160;5.298;2023-02-28T19:42:52;16.20;29.50
43995;DHT22;51687;52.160;5.298;2023-02-28T19:45:18;16.10;29.50
43995;DHT22;51687;52.160;5.298;2023-02-28T19:47:45;16.00;29.70
43995;DHT22;51687;52.160;5.298;2023-02-28T19:50:12;15.80;29.90
43995;DHT22;51687;52.160;5.298;2023-02-28T19:52:39;15.70;30.00
43995;DHT22;51687;52.160;5.298;2023-02-28T19:55:11;15.60;30.00
43995;DHT22;51687;52.160;5.298;2023-02-28T19:57:39;15.50;30.10
43995;DHT22;51687;52.160;5.298;2023-02-28T20:00:07;15.40;31.50
43995;DHT22;51687;52.160;5.298;2023-02-28T20:02:34;15.40;30.50
43995;DHT22;51687;52.160;5.298;2023-02-28T20:05:01;15.30;30.30
43995;DHT22;51687;52.160;5.298;2023-02-28T20:07:28;15.20;30.50
43995;DHT22;51687;52.160;5.298;2023-02-28T20:09:56;15.10;30.40
43995;DHT22;51687;52.160;5.298;2023-02-28T20:12:23;15.00;30.20
43995;DHT22;51687;52.160;5.298;2023-02-28T20:14:51;15.00;30.50
43995;DHT22;51687;52.160;5.298;2023-02-28T20:17:18;14.90;30.20
43995;DHT22;51687;52.160;5.298;2023-02-28T20:19:46;14.80;30.10
43995;DHT22;51687;52.160;5.298;2023-02-28T20:22:12;14.70;30.00
43995;DHT22;51687;52.160;5.298;2023-02-28T20:24:39;14.70;30.50
43995;DHT22;51687;52.160;5.298;2023-02-28T20:27:06;14.50;30.60
43995;DHT22;51687;52.160;5.298;2023-02-28T20:29:33;14.50;30.80
43995;DHT22;51687;52.160;5.298;2023-02-28T20:32:00;14.40;30.80
43995;DHT22;51687;52.160;5.298;2023-02-28T20:34:27;14.30;30.80
43995;DHT22;51687;52.160;5.298;2023-02-28T20:36:54;14.30;30.90
43995;DHT22;51687;52.160;5.298;2023-02-28T20:39:22;14.20;30.80
43995;DHT22;51687;52.160;5.298;2023-02-28T20:41:49;14.10;31.00
43995;DHT22;51687;52.160;5.298;2023-02-28T20:44:16;14.10;31.10
43995;DHT22;51687;52.160;5.298;2023-02-28T20:46:42;14.00;31.40
43995;DHT22;51687;52.160;5.298;2023-02-28T20:49:09;13.90;31.50
43995;DHT22;51687;52.160;5.298;2023-02-28T20:51:36;13.80;31.30
43995;DHT22;51687;52.160;5.298;2023-02-28T20:54:08;13.80;31.40
43995;DHT22;51687;52.160;5.298;2023-02-28T20:56:36;13.70;31.50
43995;DHT22;51687;52.160;5.298;2023-02-28T20:59:03;13.70;31.80
43995;DHT22;51687;52.160;5.298;2023-02-28T21:01:31;13.60;31.70
43995;DHT22;51687;52.160;5.298;2023-02-28T21:04:01;13.60;31.70
43995;DHT22;51687;52.160;5.298;2023-02-28T21:06:32;13.50;31.70
43995;DHT22;51687;52.160;5.298;2023-02-28T21:08:59;13.50;32.00
43995;DHT22;51687;52.160;5.298;2023-02-28T21:11:28;13.50;32.10
43995;DHT22;51687;52.160;5.298;2023-02-28T21:13:58;13.40;32.00
43995;DHT22;51687;52.160;5.298;2023-02-28T21:16:25;13.40;32.20
43995;DHT22;51687;52.160;5.298;2023-02-28T21:18:52;13.30;32.40
43995;DHT22;51687;52.160;5.298;2023-02-28T21:21:21;13.20;32.40
43995;DHT22;51687;52.160;5.298;2023-02-28T21:23:48;13.10;32.40
43995;DHT22;51687;52.160;5.298;2023-02-28T21:26:17;13.10;33.60
43995;DHT22;51687;52.160;5.298;2023-02-28T21:28:49;13.00;32.80
43995;DHT22;51687;52.160;5.298;2023-02-28T21:31:17;13.00;33.00
43995;DHT22;51687;52.160;5.298;2023-02-28T21:33:45;12.90;33.10
43995;DHT22;51687;52.160;5.298;2023-02-28T21:36:14;12.90;33.10
43995;DHT22;51687;52.160;5.298;2023-02-28T21:38:43;12.80;33.40
43995;DHT22;51687;52.160;5.298;2023-02-28T21:41:14;12.70;33.50
43995;DHT22;51687;52.160;5.298;2023-02-28T21:43:42;12.60;33.60
43995;DHT22;51687;52.160;5.298;2023-02-28T21:46:11;12.60;33.40
43995;DHT22;51687;52.160;5.298;2023-02-28T21:48:39;12.60;33.50
43995;DHT22;51687;52.160;5.298;2023-02-28T21:51:15;12.60;33.50
43995;DHT22;51687;52.160;5.298;2023-02-28T21:53:42;12.50;33.60
43995;DHT22;51687;52.160;5.298;2023-02-28T21:56:15;12.40;33.90
43995;DHT22;51687;52.160;5.298;2023-02-28T21:58:42;12.40;34.00
43995;DHT22;51687;52.160;5.298;2023-02-28T22:01:15;12.30;34.10
43995;DHT22;51687;52.160;5.298;2023-02-28T22:03:42;12.20;34.20
43995;DHT22;51687;52.160;5.298;2023-02-28T22:06:12;12.20;34.60
43995;DHT22;51687;52.160;5.298;2023-02-28T22:08:40;12.20;34.60
43995;DHT22;51687;52.160;5.298;2023-02-28T22:11:07;12.20;34.70
43995;DHT22;51687;52.160;5.298;2023-02-28T22:13:36;12.20;35.00
43995;DHT22;51687;52.160;5.298;2023-02-28T22:16:12;12.10;34.80
43995;DHT22;51687;52.160;5.298;2023-02-28T22:18:39;12.10;34.70
43995;DHT22;51687;52.160;5.298;2023-02-28T22:23:35;12.10;34.80